Martinsdale, Montana
Current Conditions -  °F | °C
As of 10:53 PM on Monday 20 Oct 2014 (Local Time) from KLVM Reporting Station
Clear Clear  
Wind Chill: 58°   Ceiling: Unl
Heat Index: 58°   Visibility: 10mi
Dew Point: 33°   Wind: 0mph
Humidity: 39%   Direction: NA
Pressure: 29.84"   Gusts: NA
Location:  46.46°N, 110.31°W
Report Text: KLVM 210453Z AUTO 00000KT 10SM CLR 14/01 A2984 RMK AO2 SLP073 T01440006
Loading
Personal Weather Stations






























Interactive Weather Map
Tropical Storm Tracking
New forecast layout! Learn more

10-Day Weather Forecast

Advertisements
Track Severe Weather on mobile